createdAt,value
2023-04-09T00:00:47.844Z,101539.03
2023-04-09T00:03:25.327Z,101523.75
2023-04-09T00:06:06.697Z,101527.59
2023-04-09T00:08:33.815Z,101524.81
2023-04-09T00:11:00.683Z,101519.56
2023-04-09T00:13:38.459Z,101521.88
2023-04-09T00:16:06.608Z,101516.59
2023-04-09T00:18:33.432Z,101516.81
2023-04-09T00:21:00.137Z,101516.81
2023-04-09T00:23:27.031Z,101518.00
2023-04-09T00:25:53.699Z,101516.50
2023-04-09T00:28:20.664Z,101510.09
2023-04-09T00:30:47.433Z,101512.53
2023-04-09T00:33:14.223Z,101510.09
2023-04-09T00:35:41.133Z,101505.19
2023-04-09T00:38:09.518Z,101507.25
2023-04-09T00:40:36.347Z,101512.03
2023-04-09T00:43:06.758Z,101511.34
2023-04-09T00:45:33.763Z,101507.34
2023-04-09T00:48:04.227Z,101507.22
2023-04-09T00:50:31.020Z,101509.31
2023-04-09T00:52:57.730Z,101512.00
2023-04-09T00:55:25.519Z,101509.75
2023-04-09T00:57:52.303Z,101509.44
2023-04-09T01:00:19.387Z,101509.88
2023-04-09T01:02:46.533Z,101503.69
2023-04-09T01:05:14.729Z,101507.41
2023-04-09T01:08:09.282Z,101510.69
2023-04-09T01:10:47.148Z,101514.41
2023-04-09T01:13:24.090Z,101513.22
2023-04-09T01:16:01.313Z,101509.38
2023-04-09T01:19:02.430Z,101515.16
2023-04-09T01:21:32.645Z,101507.38
2023-04-09T01:24:26.829Z,101498.06
2023-04-09T01:27:08.226Z,101504.34
2023-04-09T01:29:51.294Z,101507.13
2023-04-09T01:32:20.979Z,101502.78
2023-04-09T01:34:48.313Z,101510.22
2023-04-09T01:37:34.784Z,101506.63
2023-04-09T01:40:08.244Z,101513.16
2023-04-09T01:42:43.076Z,101506.31
2023-04-09T01:45:16.699Z,101510.00
2023-04-09T01:47:44.366Z,101512.56
2023-04-09T01:50:11.295Z,101511.38
2023-04-09T01:52:41.973Z,101516.94
2023-04-09T01:55:11.516Z,101512.06
2023-04-09T01:57:40.986Z,101510.19
2023-04-09T02:00:11.604Z,101514.97
2023-04-09T02:03:01.458Z,101516.25
2023-04-09T02:05:36.338Z,101512.72
2023-04-09T02:08:06.158Z,101516.66
2023-04-09T02:10:38.220Z,101515.06
2023-04-09T02:13:06.456Z,101515.88
2023-04-09T02:15:36.670Z,101513.56
2023-04-09T02:18:03.545Z,101515.41
2023-04-09T02:20:30.642Z,101523.44
2023-04-09T02:22:59.941Z,101520.75
2023-04-09T02:25:27.355Z,101516.56
2023-04-09T02:27:54.121Z,101514.50
2023-04-09T02:30:20.965Z,101516.28
2023-04-09T02:32:47.696Z,101518.34
2023-04-09T02:35:15.597Z,101517.03
2023-04-09T02:37:42.530Z,101512.13
2023-04-09T02:40:09.900Z,101512.59
2023-04-09T02:42:36.667Z,101507.66
2023-04-09T02:45:03.472Z,101508.03
2023-04-09T02:47:31.515Z,101511.53
2023-04-09T02:49:58.214Z,101507.84
2023-04-09T02:52:28.632Z,101510.50
2023-04-09T02:54:55.166Z,101506.19
2023-04-09T02:57:21.868Z,101515.69
2023-04-09T02:59:48.526Z,101514.69
2023-04-09T03:02:15.505Z,101510.34
2023-04-09T03:04:44.498Z,101508.13
2023-04-09T03:07:11.394Z,101504.16
2023-04-09T03:09:38.088Z,101504.06
2023-04-09T03:12:04.798Z,101505.63
2023-04-09T03:14:31.606Z,101507.41
2023-04-09T03:16:58.736Z,101506.50
2023-04-09T03:19:25.392Z,101504.09
2023-04-09T03:21:52.086Z,101505.63
2023-04-09T03:24:23.439Z,101505.69
2023-04-09T03:26:50.967Z,101502.03
2023-04-09T03:29:17.906Z,101507.44
2023-04-09T03:31:44.846Z,101492.28
2023-04-09T03:34:11.433Z,101498.50
2023-04-09T03:36:38.045Z,101497.28
2023-04-09T03:39:10.704Z,101497.28
2023-04-09T03:41:47.100Z,101491.94
2023-04-09T03:44:16.190Z,101496.47
2023-04-09T03:47:09.005Z,101491.59
2023-04-09T03:49:37.830Z,101491.59
2023-04-09T03:52:17.918Z,101494.81
2023-04-09T03:54:50.053Z,101492.53
2023-04-09T03:57:21.396Z,101498.50
2023-04-09T03:59:50.977Z,101499.28
2023-04-09T04:02:20.713Z,101495.22
2023-04-09T04:05:01.925Z,101504.28
2023-04-09T04:07:33.715Z,101501.34
2023-04-09T04:10:09.339Z,101503.75
2023-04-09T04:12:36.145Z,101497.50
2023-04-09T04:15:16.691Z,101494.59
2023-04-09T04:17:49.032Z,101497.50
2023-04-09T04:20:39.275Z,101496.69
2023-04-09T04:23:10.088Z,101493.00
2023-04-09T04:25:45.448Z,101499.75
2023-04-09T04:28:16.483Z,101498.69
2023-04-09T04:30:43.254Z,101508.78
2023-04-09T04:33:10.673Z,101507.75
2023-04-09T04:35:45.694Z,101508.56
2023-04-09T04:38:29.177Z,101510.59
2023-04-09T04:40:58.078Z,101508.91
2023-04-09T04:43:25.187Z,101513.84
2023-04-09T04:45:54.185Z,101510.59
2023-04-09T04:48:24.653Z,101513.50
2023-04-09T04:50:59.571Z,101515.94
2023-04-09T04:53:31.239Z,101512.91
2023-04-09T04:56:00.637Z,101513.53
2023-04-09T04:58:27.369Z,101511.91
2023-04-09T05:00:58.010Z,101516.06
2023-04-09T05:03:27.703Z,101517.09
2023-04-09T05:06:24.463Z,101513.22
2023-04-09T05:08:52.099Z,101525.59
2023-04-09T05:11:18.999Z,101521.06
2023-04-09T05:13:47.746Z,101521.06
2023-04-09T05:16:19.487Z,101519.22
2023-04-09T05:18:54.707Z,101512.19
2023-04-09T05:21:21.680Z,101521.19
2023-04-09T05:23:48.949Z,101517.25
2023-04-09T05:26:15.578Z,101517.41
2023-04-09T05:28:50.651Z,101525.38
2023-04-09T05:31:19.583Z,101523.66
2023-04-09T05:33:53.448Z,101525.75
2023-04-09T05:36:26.027Z,101522.94
2023-04-09T05:38:53.114Z,101525.41
2023-04-09T05:41:19.890Z,101530.63
2023-04-09T05:44:01.944Z,101528.66
2023-04-09T05:46:31.801Z,101526.47
2023-04-09T05:48:59.225Z,101530.22
2023-04-09T05:51:27.710Z,101533.16
2023-04-09T05:53:55.886Z,101536.88
2023-04-09T05:56:23.459Z,101535.22
2023-04-09T05:58:57.212Z,101537.28
2023-04-09T06:02:13.921Z,101537.88
2023-04-09T06:09:01.960Z,101539.09
2023-04-09T06:11:57.810Z,101545.38
2023-04-09T06:14:32.802Z,101542.84
2023-04-09T06:17:04.871Z,101544.66
2023-04-09T06:19:34.669Z,101547.25
2023-04-09T06:22:01.454Z,101541.78
2023-04-09T06:24:32.975Z,101546.63
2023-04-09T06:27:00.442Z,101550.94
2023-04-09T06:29:27.203Z,101553.63
2023-04-09T06:31:54.146Z,101544.88
2023-04-09T06:34:20.909Z,101553.50
2023-04-09T06:36:47.663Z,101555.25
2023-04-09T06:39:14.337Z,101547.91
2023-04-09T06:41:41.381Z,101553.44
2023-04-09T06:44:25.280Z,101563.66
2023-04-09T06:46:55.049Z,101551.03
2023-04-09T06:49:21.745Z,101561.69
2023-04-09T06:51:48.435Z,101560.34
2023-04-09T06:54:15.180Z,101562.38
2023-04-09T06:56:42.001Z,101561.19
2023-04-09T06:59:09.737Z,101560.50
2023-04-09T07:01:37.823Z,101558.00
2023-04-09T07:04:05.293Z,101555.00
2023-04-09T07:06:34.594Z,101564.03
2023-04-09T07:09:01.414Z,101554.75
2023-04-09T07:11:30.592Z,101556.25
2023-04-09T07:13:57.483Z,101549.25
2023-04-09T07:16:24.378Z,101544.31
2023-04-09T07:18:56.091Z,101545.97
2023-04-09T07:21:27.336Z,101553.88
2023-04-09T07:23:59.083Z,101545.78
2023-04-09T07:26:33.096Z,101546.94
2023-04-09T07:28:59.919Z,101550.44
2023-04-09T07:31:27.090Z,101551.50
2023-04-09T07:36:35.126Z,101552.22
2023-04-09T07:39:01.936Z,101550.22
2023-04-09T07:41:31.895Z,101549.91
2023-04-09T07:44:03.571Z,101555.00
2023-04-09T07:46:30.420Z,101557.59
2023-04-09T07:48:57.228Z,101553.13
2023-04-09T07:51:32.375Z,101557.03
2023-04-09T07:53:59.209Z,101564.72
2023-04-09T07:56:26.161Z,101562.13
2023-04-09T07:58:54.421Z,101553.94
2023-04-09T08:01:27.314Z,101559.72
2023-04-09T08:03:54.199Z,101564.69
2023-04-09T08:06:21.117Z,101565.88
2023-04-09T08:08:47.775Z,101570.94
2023-04-09T08:11:14.497Z,101569.22
2023-04-09T08:13:42.945Z,101567.59
2023-04-09T08:16:10.361Z,101562.00
2023-04-09T08:18:37.175Z,101568.66
2023-04-09T08:21:07.289Z,101569.28
2023-04-09T08:23:33.955Z,101555.78
2023-04-09T08:26:00.755Z,101558.81
2023-04-09T08:28:27.637Z,101561.75
2023-04-09T08:30:54.696Z,101563.34
2023-04-09T08:33:22.924Z,101561.22
2023-04-09T08:35:49.775Z,101568.56
2023-04-09T08:38:19.834Z,101571.50
2023-04-09T08:40:46.849Z,101573.00
2023-04-09T08:43:16.383Z,101577.03
2023-04-09T08:45:43.482Z,101571.94
2023-04-09T08:48:13.482Z,101575.47
2023-04-09T08:50:43.157Z,101574.06
2023-04-09T08:53:11.171Z,101576.56
2023-04-09T08:55:38.518Z,101569.88
2023-04-09T08:58:07.812Z,101563.91
2023-04-09T09:00:34.514Z,101562.78
2023-04-09T09:03:05.515Z,101568.78
2023-04-09T09:05:40.293Z,101563.31
2023-04-09T09:08:09.717Z,101566.84
2023-04-09T09:10:46.804Z,101567.03
2023-04-09T09:13:24.908Z,101569.34
2023-04-09T09:16:11.493Z,101571.38
2023-04-09T09:18:41.118Z,101578.59
2023-04-09T09:21:15.342Z,101564.97
2023-04-09T09:23:42.805Z,101561.22
2023-04-09T09:26:18.433Z,101569.69
2023-04-09T09:28:49.100Z,101544.13
2023-04-09T09:31:17.148Z,101528.50
2023-04-09T09:33:44.531Z,101525.72
2023-04-09T09:36:11.606Z,101528.91
2023-04-09T09:38:53.989Z,101536.34
2023-04-09T09:41:22.244Z,101523.25
2023-04-09T09:43:50.411Z,101519.00
2023-04-09T09:46:17.854Z,101511.97
2023-04-09T09:48:51.836Z,101515.41
2023-04-09T09:51:27.702Z,101500.44
2023-04-09T09:53:58.211Z,101501.84
2023-04-09T09:56:34.706Z,101506.63
2023-04-09T09:59:16.243Z,101506.59
2023-04-09T10:01:48.615Z,101497.78
2023-04-09T10:04:21.668Z,101505.03
2023-04-09T10:06:52.189Z,101504.25
2023-04-09T10:09:22.846Z,101496.19
2023-04-09T10:11:50.500Z,101492.16
2023-04-09T10:14:19.168Z,101501.75
2023-04-09T10:16:50.674Z,101503.75
2023-04-09T10:19:24.922Z,101493.94
2023-04-09T10:21:58.337Z,101508.69
2023-04-09T10:24:29.487Z,101506.41
2023-04-09T10:27:10.575Z,101501.84
2023-04-09T10:29:45.824Z,101502.84
2023-04-09T10:32:13.864Z,101502.78
2023-04-09T10:34:42.797Z,101500.81
2023-04-09T10:37:16.128Z,101500.16
2023-04-09T10:39:48.200Z,101505.44
2023-04-09T10:42:21.822Z,101503.19
2023-04-09T10:45:07.721Z,101499.41
2023-04-09T10:47:37.117Z,101498.78
2023-04-09T10:50:27.125Z,101501.53
2023-04-09T10:52:56.728Z,101490.47
2023-04-09T10:55:42.572Z,101480.94
2023-04-09T10:58:13.104Z,101492.09
2023-04-09T11:00:42.541Z,101479.19
2023-04-09T11:03:30.583Z,101482.66
2023-04-09T11:06:07.402Z,101478.00
2023-04-09T11:08:38.432Z,101477.25
2023-04-09T11:11:06.150Z,101480.19
2023-04-09T11:13:34.254Z,101482.91
2023-04-09T11:16:04.056Z,101487.06
2023-04-09T11:18:34.865Z,101489.06
2023-04-09T11:21:02.252Z,101488.28
2023-04-09T11:23:29.151Z,101488.59
2023-04-09T11:25:56.582Z,101480.06
2023-04-09T11:28:25.714Z,101478.44
2023-04-09T11:30:53.075Z,101476.94
2023-04-09T11:33:20.751Z,101467.34
2023-04-09T11:35:48.560Z,101470.16
2023-04-09T11:38:15.859Z,101463.16
2023-04-09T11:40:48.732Z,101466.63
2023-04-09T11:43:16.951Z,101477.94
2023-04-09T11:45:44.811Z,101474.03
2023-04-09T11:48:13.066Z,101475.28
2023-04-09T11:50:40.671Z,101474.19
2023-04-09T11:53:37.653Z,101485.91
2023-04-09T11:56:04.734Z,101477.59
2023-04-09T11:58:32.232Z,101478.94
2023-04-09T12:01:00.075Z,101475.91
2023-04-09T12:03:33.894Z,101485.91
2023-04-09T12:06:02.876Z,101476.69
2023-04-09T12:08:39.168Z,101468.94
2023-04-09T12:11:15.541Z,101471.91
2023-04-09T12:13:45.006Z,101474.94
2023-04-09T12:16:16.870Z,101474.50
2023-04-09T12:18:43.831Z,101478.34
2023-04-09T12:21:11.384Z,101470.97
2023-04-09T12:23:39.537Z,101469.34
2023-04-09T12:26:06.781Z,101469.78
2023-04-09T12:28:33.657Z,101466.59
2023-04-09T12:31:00.590Z,101465.81
2023-04-09T12:33:27.438Z,101470.81
2023-04-09T12:35:54.433Z,101457.63
2023-04-09T12:38:21.459Z,101458.63
2023-04-09T12:40:48.257Z,101451.75
2023-04-09T12:43:15.897Z,101450.72
2023-04-09T12:45:42.774Z,101453.50
2023-04-09T12:48:11.682Z,101458.16
2023-04-09T12:50:41.529Z,101451.97
2023-04-09T12:53:09.077Z,101439.78
2023-04-09T12:55:36.208Z,101441.28
2023-04-09T12:58:05.934Z,101442.16
2023-04-09T13:00:35.624Z,101438.47
2023-04-09T13:03:02.442Z,101428.53
2023-04-09T13:05:31.546Z,101439.81
2023-04-09T13:07:59.591Z,101430.19
2023-04-09T13:10:26.531Z,101432.56
2023-04-09T13:12:53.392Z,101426.16
2023-04-09T13:15:20.446Z,101424.03
2023-04-09T13:17:47.344Z,101420.53
2023-04-09T13:20:17.368Z,101422.78
2023-04-09T13:22:48.772Z,101419.19
2023-04-09T13:25:16.627Z,101419.22
2023-04-09T13:27:43.903Z,101412.28
2023-04-09T13:30:10.937Z,101416.97
2023-04-09T13:32:38.266Z,101407.75
2023-04-09T13:35:06.642Z,101400.63
2023-04-09T13:37:33.517Z,101403.22
2023-04-09T13:40:01.089Z,101395.88
2023-04-09T13:42:28.403Z,101399.09
2023-04-09T13:44:57.588Z,101400.97
2023-04-09T13:47:24.488Z,101393.28
2023-04-09T13:49:54.415Z,101394.31
2023-04-09T13:52:29.291Z,101386.06
2023-04-09T13:55:01.566Z,101377.91
2023-04-09T13:57:28.922Z,101384.31
2023-04-09T13:59:56.094Z,101384.06
2023-04-09T14:02:23.870Z,101378.03
2023-04-09T14:04:51.529Z,101375.44
2023-04-09T14:07:30.230Z,101375.19
2023-04-09T14:16:59.338Z,101362.28
2023-04-09T14:19:44.317Z,101364.34
2023-04-09T14:22:11.958Z,101356.16
2023-04-09T14:24:50.629Z,101359.91
2023-04-09T14:27:17.643Z,101357.22
2023-04-09T14:29:44.436Z,101352.34
2023-04-09T14:32:13.706Z,101353.69
2023-04-09T14:34:43.628Z,101353.13
2023-04-09T14:37:12.237Z,101350.75
2023-04-09T14:39:39.227Z,101339.41
2023-04-09T14:42:06.389Z,101343.25
2023-04-09T14:44:41.282Z,101348.88
2023-04-09T14:47:11.771Z,101335.06
2023-04-09T14:49:39.249Z,101340.00
2023-04-09T14:52:06.535Z,101332.94
2023-04-09T14:54:43.552Z,101344.84
2023-04-09T14:57:12.406Z,101329.44
2023-04-09T14:59:39.245Z,101335.50
2023-04-09T15:02:06.286Z,101328.28
2023-04-09T15:04:34.050Z,101322.06
2023-04-09T15:07:03.849Z,101321.28
2023-04-09T15:09:30.700Z,101321.22
2023-04-09T15:11:58.019Z,101316.47
2023-04-09T15:14:25.210Z,101328.19
2023-04-09T15:16:55.752Z,101330.69
2023-04-09T15:19:22.970Z,101327.44
2023-04-09T15:21:49.820Z,101335.41
2023-04-09T15:24:16.694Z,101330.84
2023-04-09T15:26:43.598Z,101319.56
2023-04-09T15:29:12.453Z,101323.09
2023-04-09T15:31:41.326Z,101317.69
2023-04-09T15:34:08.808Z,101319.31
2023-04-09T15:36:36.659Z,101313.94
2023-04-09T15:39:04.764Z,101323.09
2023-04-09T15:41:32.811Z,101318.22
2023-04-09T15:43:59.779Z,101318.50
2023-04-09T15:46:26.649Z,101315.25
2023-04-09T15:48:56.251Z,101315.00
2023-04-09T15:51:22.978Z,101321.47
2023-04-09T15:53:49.873Z,101313.91
2023-04-09T15:56:17.360Z,101312.81
2023-04-09T15:58:44.947Z,101308.47
2023-04-09T16:01:12.911Z,101309.56
2023-04-09T16:03:41.142Z,101310.63
2023-04-09T16:06:15.152Z,101309.03
2023-04-09T16:08:44.702Z,101312.81
2023-04-09T16:11:11.458Z,101297.97
2023-04-09T16:13:41.288Z,101305.28
2023-04-09T16:16:09.448Z,101306.34
2023-04-09T16:18:39.617Z,101309.06
2023-04-09T16:21:12.984Z,101301.22
2023-04-09T16:23:41.077Z,101297.16
2023-04-09T16:26:08.039Z,101300.41
2023-04-09T16:28:36.442Z,101299.84
2023-04-09T16:31:03.227Z,101301.75
2023-04-09T16:33:30.612Z,101304.72
2023-04-09T16:35:58.274Z,101299.84
2023-04-09T16:38:29.275Z,101309.59
2023-04-09T16:40:56.491Z,101306.38
2023-04-09T16:43:23.502Z,101310.13
2023-04-09T16:45:50.462Z,101303.13
2023-04-09T16:48:17.487Z,101311.16
2023-04-09T16:50:44.557Z,101308.97
2023-04-09T16:53:11.294Z,101309.50
2023-04-09T16:55:38.234Z,101310.53
2023-04-09T16:58:05.521Z,101310.78
2023-04-09T17:00:32.591Z,101301.88
2023-04-09T17:02:59.766Z,101305.91
2023-04-09T17:05:26.613Z,101298.56
2023-04-09T17:07:53.726Z,101303.16
2023-04-09T17:10:20.983Z,101301.22
2023-04-09T17:12:48.747Z,101301.75
2023-04-09T17:15:16.230Z,101299.84
2023-04-09T17:17:53.696Z,101307.41
2023-04-09T17:20:22.622Z,101305.50
2023-04-09T17:22:49.657Z,101308.19
2023-04-09T17:25:16.811Z,101309.25
2023-04-09T17:27:45.342Z,101314.59
2023-04-09T17:30:13.011Z,101305.41
2023-04-09T17:32:40.722Z,101315.09
2023-04-09T17:35:08.030Z,101316.41
2023-04-09T17:37:35.357Z,101316.13
2023-04-09T17:40:03.392Z,101319.31
2023-04-09T17:42:31.369Z,101326.31
2023-04-09T17:44:58.208Z,101327.34
2023-04-09T17:47:25.025Z,101327.88
2023-04-09T17:49:52.697Z,101323.00
2023-04-09T17:52:20.568Z,101327.31
2023-04-09T17:54:47.317Z,101331.59
2023-04-09T17:57:14.061Z,101327.78
2023-04-09T17:59:41.083Z,101326.13
2023-04-09T18:02:08.172Z,101323.34
2023-04-09T18:04:35.585Z,101330.31
2023-04-09T18:07:03.892Z,101331.91
2023-04-09T18:09:32.196Z,101339.97
2023-04-09T18:12:01.101Z,101337.19
2023-04-09T18:14:32.406Z,101342.56
2023-04-09T18:17:01.872Z,101343.56
2023-04-09T18:19:28.734Z,101345.16
2023-04-09T18:21:55.507Z,101345.66
2023-04-09T18:24:22.237Z,101340.78
2023-04-09T18:26:49.039Z,101352.06
2023-04-09T18:29:15.761Z,101354.69
2023-04-09T18:31:42.696Z,101349.84
2023-04-09T18:34:10.378Z,101349.50
2023-04-09T18:36:37.077Z,101352.94
2023-04-09T18:39:05.125Z,101354.75
2023-04-09T18:41:32.349Z,101360.09
2023-04-09T18:43:59.195Z,101360.84
2023-04-09T18:46:28.482Z,101362.16
2023-04-09T18:48:56.352Z,101364.53
2023-04-09T18:51:23.060Z,101362.34
2023-04-09T18:53:53.036Z,101362.84
2023-04-09T18:56:20.325Z,101357.16
2023-04-09T18:58:48.334Z,101363.84
2023-04-09T19:01:17.394Z,101357.34
2023-04-09T19:03:44.839Z,101365.91
2023-04-09T19:06:20.536Z,101371.22
2023-04-09T19:08:48.130Z,101369.84
2023-04-09T19:11:18.600Z,101363.06
2023-04-09T19:13:46.308Z,101365.22
2023-04-09T19:16:13.481Z,101372.72
2023-04-09T19:18:40.688Z,101370.53
2023-04-09T19:21:35.951Z,101381.28
2023-04-09T19:24:05.482Z,101378.25
2023-04-09T19:26:33.312Z,101375.00
2023-04-09T19:29:25.282Z,101370.38
2023-04-09T19:31:57.447Z,101376.16
2023-04-09T19:34:25.512Z,101365.91
2023-04-09T19:36:52.925Z,101375.53
2023-04-09T19:39:23.139Z,101376.28
2023-04-09T19:42:14.274Z,101378.63
2023-04-09T19:44:56.120Z,101374.25
2023-04-09T19:47:37.526Z,101376.88
2023-04-09T19:50:34.621Z,101375.47
2023-04-09T19:53:04.092Z,101377.00
2023-04-09T19:55:38.148Z,101370.03
2023-04-09T19:58:05.930Z,101372.47
2023-04-09T20:00:33.835Z,101376.19
2023-04-09T20:03:01.230Z,101376.13
2023-04-09T20:05:28.058Z,101389.72
2023-04-09T20:07:54.900Z,101385.53
2023-04-09T20:10:40.441Z,101387.66
2023-04-09T20:15:59.095Z,101386.09
2023-04-09T20:18:55.023Z,101389.50
2023-04-09T20:21:25.098Z,101382.16
2023-04-09T20:23:52.037Z,101386.63
2023-04-09T20:26:29.360Z,101375.78
2023-04-09T20:29:12.002Z,101383.25
2023-04-09T20:32:07.361Z,101384.56
2023-04-09T20:34:45.420Z,101383.66
2023-04-09T20:37:12.304Z,101382.50
2023-04-09T20:39:41.265Z,101387.88
2023-04-09T20:42:11.396Z,101378.13
2023-04-09T20:44:41.905Z,101379.66
2023-04-09T20:47:08.789Z,101389.22
2023-04-09T20:49:43.327Z,101381.63
2023-04-09T20:52:22.764Z,101385.38
2023-04-09T20:54:55.402Z,101375.13
2023-04-09T20:57:23.258Z,101372.66
2023-04-09T20:59:50.405Z,101373.50
2023-04-09T21:02:27.302Z,101374.53
2023-04-09T21:05:19.530Z,101368.03
2023-04-09T21:08:01.380Z,101378.44
2023-04-09T21:10:37.427Z,101385.06
2023-04-09T21:13:21.771Z,101387.44
2023-04-09T21:15:53.866Z,101385.69
2023-04-09T21:18:31.529Z,101383.22
2023-04-09T21:21:05.949Z,101381.59
2023-04-09T21:23:43.840Z,101385.34
2023-04-09T21:26:14.798Z,101384.53
2023-04-09T21:29:01.963Z,101379.16
2023-04-09T21:31:32.043Z,101369.72
2023-04-09T21:33:59.816Z,101376.34
2023-04-09T21:36:27.557Z,101378.47
2023-04-09T21:38:54.439Z,101374.41
2023-04-09T21:41:23.601Z,101370.56
2023-04-09T21:43:50.471Z,101378.25
2023-04-09T21:46:17.606Z,101370.47
2023-04-09T21:48:44.830Z,101363.94
2023-04-09T21:51:12.409Z,101361.47
2023-04-09T21:53:39.196Z,101368.13
2023-04-09T21:56:06.403Z,101358.44
2023-04-09T21:58:36.431Z,101361.63
2023-04-09T22:01:15.698Z,101369.06
2023-04-09T22:03:59.819Z,101365.41
2023-04-09T22:06:32.658Z,101364.03
2023-04-09T22:08:59.834Z,101370.44
2023-04-09T22:11:28.475Z,101367.19
2023-04-09T22:13:57.319Z,101366.34
2023-04-09T22:16:24.970Z,101367.66
2023-04-09T22:18:54.513Z,101367.06
2023-04-09T22:21:22.479Z,101374.41
2023-04-09T22:23:49.206Z,101384.41
2023-04-09T22:26:16.251Z,101376.38
2023-04-09T22:28:43.321Z,101378.03
2023-04-09T22:31:10.392Z,101386.06
2023-04-09T22:33:37.257Z,101376.97
2023-04-09T22:36:04.288Z,101383.38
2023-04-09T22:38:32.262Z,101379.31
2023-04-09T22:41:03.508Z,101382.22
2023-04-09T22:43:32.979Z,101379.75
2023-04-09T22:46:00.275Z,101381.63
2023-04-09T22:48:29.069Z,101373.00
2023-04-09T22:50:57.796Z,101375.09
2023-04-09T22:53:24.697Z,101364.84
2023-04-09T22:55:55.478Z,101365.91
2023-04-09T22:58:25.725Z,101368.56
2023-04-09T23:00:55.181Z,101370.19
2023-04-09T23:03:27.450Z,101366.94
2023-04-09T23:05:54.291Z,101368.44
2023-04-09T23:08:21.550Z,101367.63
2023-04-09T23:10:48.760Z,101371.13
2023-04-09T23:13:17.211Z,101369.50
2023-04-09T23:15:44.704Z,101374.84
2023-04-09T23:18:12.661Z,101383.91
2023-04-09T23:20:43.501Z,101378.81
2023-04-09T23:23:16.153Z,101374.50
2023-04-09T23:25:52.601Z,101380.09
2023-04-09T23:28:19.407Z,101373.09
2023-04-09T23:30:48.904Z,101372.50
2023-04-09T23:33:15.835Z,101361.44
2023-04-09T23:35:42.447Z,101361.91
2023-04-09T23:38:09.321Z,101354.09
2023-04-09T23:40:36.244Z,101361.53
2023-04-09T23:43:03.012Z,101361.53
2023-04-09T23:45:29.668Z,101349.22
2023-04-09T23:47:57.519Z,101352.94
2023-04-09T23:50:24.609Z,101350.47
2023-04-09T23:52:51.792Z,101338.63
2023-04-09T23:55:18.923Z,101340.72
2023-04-09T23:57:45.766Z,101342.56
